sensor_id;sensor_type;location;lat;lon;timestamp;temperature;humidity
56137;DHT22;42008;52.934;5.884;2022-08-16T00:00:49;20.70;1.00
56137;DHT22;42008;52.934;5.884;2022-08-16T00:03:15;21.50;1.00
56137;DHT22;42008;52.934;5.884;2022-08-16T00:05:42;22.50;1.00
56137;DHT22;42008;52.934;5.884;2022-08-16T00:08:08;22.20;1.00
56137;DHT22;42008;52.934;5.884;2022-08-16T00:10:34;20.90;1.00
56137;DHT22;42008;52.934;5.884;2022-08-16T00:13:02;21.70;1.00
56137;DHT22;42008;52.934;5.884;2022-08-16T00:15:33;21.00;1.00
56137;DHT22;42008;52.934;5.884;2022-08-16T00:17:59;22.30;1.00
56137;DHT22;42008;52.934;5.884;2022-08-16T00:20:25;20.60;1.80
56137;DHT22;42008;52.934;5.884;2022-08-16T00:22:51;21.40;3.70
56137;DHT22;42008;52.934;5.884;2022-08-16T00:25:19;20.70;4.60
56137;DHT22;42008;52.934;5.884;2022-08-16T00:27:45;21.00;6.90
56137;DHT22;42008;52.934;5.884;2022-08-16T00:30:13;20.30;8.50
56137;DHT22;42008;52.934;5.884;2022-08-16T00:32:41;20.60;9.40
56137;DHT22;42008;52.934;5.884;2022-08-16T00:35:09;21.60;11.40
56137;DHT22;42008;52.934;5.884;2022-08-16T00:37:35;22.00;11.10
56137;DHT22;42008;52.934;5.884;2022-08-16T00:40:00;21.30;9.90
56137;DHT22;42008;52.934;5.884;2022-08-16T00:42:28;20.50;9.50
56137;DHT22;42008;52.934;5.884;2022-08-16T00:44:58;20.70;11.00
56137;DHT22;42008;52.934;5.884;2022-08-16T00:47:25;20.90;9.70
56137;DHT22;42008;52.934;5.884;2022-08-16T00:49:51;21.60;10.50
56137;DHT22;42008;52.934;5.884;2022-08-16T00:52:17;21.10;9.80
56137;DHT22;42008;52.934;5.884;2022-08-16T00:54:43;22.50;12.60
56137;DHT22;42008;52.934;5.884;2022-08-16T00:57:08;20.50;10.90
56137;DHT22;42008;52.934;5.884;2022-08-16T00:59:37;20.50;10.40
56137;DHT22;42008;52.934;5.884;2022-08-16T01:02:06;20.50;11.50
56137;DHT22;42008;52.934;5.884;2022-08-16T01:04:33;20.80;12.50
56137;DHT22;42008;52.934;5.884;2022-08-16T01:07:00;21.30;13.10
56137;DHT22;42008;52.934;5.884;2022-08-16T01:09:27;20.00;12.60
56137;DHT22;42008;52.934;5.884;2022-08-16T01:11:52;21.20;13.00
56137;DHT22;42008;52.934;5.884;2022-08-16T01:14:20;21.40;15.30
56137;DHT22;42008;52.934;5.884;2022-08-16T01:16:47;20.80;15.30
56137;DHT22;42008;52.934;5.884;2022-08-16T01:21:59;20.80;16.70
56137;DHT22;42008;52.934;5.884;2022-08-16T01:24:34;21.00;15.40
56137;DHT22;42008;52.934;5.884;2022-08-16T01:27:10;21.20;15.60
56137;DHT22;42008;52.934;5.884;2022-08-16T01:29:45;20.10;14.00
56137;DHT22;42008;52.934;5.884;2022-08-16T01:32:11;20.50;10.80
56137;DHT22;42008;52.934;5.884;2022-08-16T01:34:37;19.80;11.60
56137;DHT22;42008;52.934;5.884;2022-08-16T01:37:06;20.70;11.60
56137;DHT22;42008;52.934;5.884;2022-08-16T01:39:33;20.80;15.00
56137;DHT22;42008;52.934;5.884;2022-08-16T01:42:00;21.20;14.10
56137;DHT22;42008;52.934;5.884;2022-08-16T01:44:26;20.30;15.30
56137;DHT22;42008;52.934;5.884;2022-08-16T01:46:52;19.40;16.30
56137;DHT22;42008;52.934;5.884;2022-08-16T01:51:57;20.10;16.30
56137;DHT22;42008;52.934;5.884;2022-08-16T01:54:23;20.00;19.70
56137;DHT22;42008;52.934;5.884;2022-08-16T01:56:49;20.10;20.30
56137;DHT22;42008;52.934;5.884;2022-08-16T01:59:14;20.40;18.50
56137;DHT22;42008;52.934;5.884;2022-08-16T02:01:41;20.50;19.20
56137;DHT22;42008;52.934;5.884;2022-08-16T02:04:07;20.10;19.60
56137;DHT22;42008;52.934;5.884;2022-08-16T02:06:32;20.60;19.50
56137;DHT22;42008;52.934;5.884;2022-08-16T02:09:02;21.20;21.80
56137;DHT22;42008;52.934;5.884;2022-08-16T02:11:28;19.90;21.80
56137;DHT22;42008;52.934;5.884;2022-08-16T02:13:54;19.20;21.60
56137;DHT22;42008;52.934;5.884;2022-08-16T02:16:20;20.40;23.80
56137;DHT22;42008;52.934;5.884;2022-08-16T02:18:46;19.20;25.90
56137;DHT22;42008;52.934;5.884;2022-08-16T02:21:12;20.40;27.50
56137;DHT22;42008;52.934;5.884;2022-08-16T02:23:39;19.80;28.60
56137;DHT22;42008;52.934;5.884;2022-08-16T02:26:05;20.40;29.90
56137;DHT22;42008;52.934;5.884;2022-08-16T02:28:31;19.70;28.00
56137;DHT22;42008;52.934;5.884;2022-08-16T02:31:00;20.30;28.30
56137;DHT22;42008;52.934;5.884;2022-08-16T02:33:26;21.30;29.30
56137;DHT22;42008;52.934;5.884;2022-08-16T02:35:52;20.00;28.30
56137;DHT22;42008;52.934;5.884;2022-08-16T02:38:18;19.60;24.30
56137;DHT22;42008;52.934;5.884;2022-08-16T02:40:43;20.50;24.10
56137;DHT22;42008;52.934;5.884;2022-08-16T02:43:10;19.60;25.20
56137;DHT22;42008;52.934;5.884;2022-08-16T02:45:38;18.70;22.80
56137;DHT22;42008;52.934;5.884;2022-08-16T02:48:04;19.40;18.90
56137;DHT22;42008;52.934;5.884;2022-08-16T02:50:29;19.90;23.20
56137;DHT22;42008;52.934;5.884;2022-08-16T02:52:55;19.50;26.00
56137;DHT22;42008;52.934;5.884;2022-08-16T02:55:21;21.00;27.30
56137;DHT22;42008;52.934;5.884;2022-08-16T02:57:47;20.10;28.70
56137;DHT22;42008;52.934;5.884;2022-08-16T03:00:15;19.40;28.10
56137;DHT22;42008;52.934;5.884;2022-08-16T03:02:41;19.80;29.80
56137;DHT22;42008;52.934;5.884;2022-08-16T03:05:10;20.40;28.40
56137;DHT22;42008;52.934;5.884;2022-08-16T03:07:36;19.50;26.90
56137;DHT22;42008;52.934;5.884;2022-08-16T03:10:05;19.00;25.00
56137;DHT22;42008;52.934;5.884;2022-08-16T03:12:30;19.40;24.00
56137;DHT22;42008;52.934;5.884;2022-08-16T03:14:56;19.40;23.90
56137;DHT22;42008;52.934;5.884;2022-08-16T03:17:22;19.20;23.60
56137;DHT22;42008;52.934;5.884;2022-08-16T03:19:47;19.90;23.50
56137;DHT22;42008;52.934;5.884;2022-08-16T03:22:13;18.80;22.40
56137;DHT22;42008;52.934;5.884;2022-08-16T03:24:40;19.80;23.10
56137;DHT22;42008;52.934;5.884;2022-08-16T03:27:06;18.80;23.80
56137;DHT22;42008;52.934;5.884;2022-08-16T03:29:33;18.20;24.60
56137;DHT22;42008;52.934;5.884;2022-08-16T03:31:59;20.10;26.10
56137;DHT22;42008;52.934;5.884;2022-08-16T03:34:26;18.70;26.70
56137;DHT22;42008;52.934;5.884;2022-08-16T03:36:52;18.50;28.00
56137;DHT22;42008;52.934;5.884;2022-08-16T03:39:17;18.60;29.40
56137;DHT22;42008;52.934;5.884;2022-08-16T03:41:43;18.40;31.40
56137;DHT22;42008;52.934;5.884;2022-08-16T03:44:09;18.70;30.40
56137;DHT22;42008;52.934;5.884;2022-08-16T03:46:35;19.40;34.80
56137;DHT22;42008;52.934;5.884;2022-08-16T03:49:00;19.40;35.90
56137;DHT22;42008;52.934;5.884;2022-08-16T03:51:26;17.90;35.50
56137;DHT22;42008;52.934;5.884;2022-08-16T03:53:52;18.10;32.80
56137;DHT22;42008;52.934;5.884;2022-08-16T03:56:18;19.20;31.90
56137;DHT22;42008;52.934;5.884;2022-08-16T03:58:44;19.10;30.30
56137;DHT22;42008;52.934;5.884;2022-08-16T04:01:09;18.50;29.70
56137;DHT22;42008;52.934;5.884;2022-08-16T04:03:35;18.50;29.30
56137;DHT22;42008;52.934;5.884;2022-08-16T04:06:01;19.30;28.90
56137;DHT22;42008;52.934;5.884;2022-08-16T04:08:26;19.40;28.80
56137;DHT22;42008;52.934;5.884;2022-08-16T04:10:53;19.20;30.10
56137;DHT22;42008;52.934;5.884;2022-08-16T04:13:20;18.50;32.00
56137;DHT22;42008;52.934;5.884;2022-08-16T04:15:46;18.10;36.20
56137;DHT22;42008;52.934;5.884;2022-08-16T04:18:12;18.80;38.80
56137;DHT22;42008;52.934;5.884;2022-08-16T04:20:38;19.10;39.50
56137;DHT22;42008;52.934;5.884;2022-08-16T04:23:04;19.00;37.70
56137;DHT22;42008;52.934;5.884;2022-08-16T04:25:32;17.60;38.30
56137;DHT22;42008;52.934;5.884;2022-08-16T04:27:59;18.60;39.50
56137;DHT22;42008;52.934;5.884;2022-08-16T04:30:24;18.80;40.70
56137;DHT22;42008;52.934;5.884;2022-08-16T04:32:52;18.40;42.30
56137;DHT22;42008;52.934;5.884;2022-08-16T04:35:20;17.60;43.70
56137;DHT22;42008;52.934;5.884;2022-08-16T04:37:48;18.90;44.10
56137;DHT22;42008;52.934;5.884;2022-08-16T04:40:15;18.40;42.30
56137;DHT22;42008;52.934;5.884;2022-08-16T04:42:41;18.40;46.00
56137;DHT22;42008;52.934;5.884;2022-08-16T04:45:09;18.30;44.20
56137;DHT22;42008;52.934;5.884;2022-08-16T04:47:36;19.00;45.30
56137;DHT22;42008;52.934;5.884;2022-08-16T04:50:08;18.30;45.20
56137;DHT22;42008;52.934;5.884;2022-08-16T04:52:35;17.80;40.90
56137;DHT22;42008;52.934;5.884;2022-08-16T04:55:06;18.50;41.40
56137;DHT22;42008;52.934;5.884;2022-08-16T04:57:33;19.10;40.00
56137;DHT22;42008;52.934;5.884;2022-08-16T04:59:58;18.80;41.40
56137;DHT22;42008;52.934;5.884;2022-08-16T05:02:24;18.40;40.80
56137;DHT22;42008;52.934;5.884;2022-08-16T05:04:49;19.60;40.60
56137;DHT22;42008;52.934;5.884;2022-08-16T05:07:15;18.80;39.00
56137;DHT22;42008;52.934;5.884;2022-08-16T05:09:40;17.90;37.10
56137;DHT22;42008;52.934;5.884;2022-08-16T05:12:06;18.60;35.80
56137;DHT22;42008;52.934;5.884;2022-08-16T05:14:32;19.50;36.40
56137;DHT22;42008;52.934;5.884;2022-08-16T05:16:57;18.60;34.90
56137;DHT22;42008;52.934;5.884;2022-08-16T05:19:23;19.00;34.40
56137;DHT22;42008;52.934;5.884;2022-08-16T05:21:49;18.60;31.60
56137;DHT22;42008;52.934;5.884;2022-08-16T05:24:15;18.80;31.20
56137;DHT22;42008;52.934;5.884;2022-08-16T05:26:40;18.90;29.30
56137;DHT22;42008;52.934;5.884;2022-08-16T05:29:07;18.50;27.70
56137;DHT22;42008;52.934;5.884;2022-08-16T05:31:32;18.90;26.90
56137;DHT22;42008;52.934;5.884;2022-08-16T05:34:00;18.80;27.60
56137;DHT22;42008;52.934;5.884;2022-08-16T05:36:27;19.10;27.90
56137;DHT22;42008;52.934;5.884;2022-08-16T05:38:52;18.90;26.80
56137;DHT22;42008;52.934;5.884;2022-08-16T05:41:18;20.80;27.50
56137;DHT22;42008;52.934;5.884;2022-08-16T05:43:44;19.00;26.90
56137;DHT22;42008;52.934;5.884;2022-08-16T05:46:10;20.60;25.60
56137;DHT22;42008;52.934;5.884;2022-08-16T05:48:36;19.70;23.20
56137;DHT22;42008;52.934;5.884;2022-08-16T05:51:02;20.30;19.50
56137;DHT22;42008;52.934;5.884;2022-08-16T05:53:28;19.80;17.30
56137;DHT22;42008;52.934;5.884;2022-08-16T05:55:53;19.30;17.00
56137;DHT22;42008;52.934;5.884;2022-08-16T05:58:19;21.20;14.70
56137;DHT22;42008;52.934;5.884;2022-08-16T06:00:45;20.00;12.40
56137;DHT22;42008;52.934;5.884;2022-08-16T06:03:10;20.80;12.20
56137;DHT22;42008;52.934;5.884;2022-08-16T06:05:36;20.10;9.90
56137;DHT22;42008;52.934;5.884;2022-08-16T06:08:02;19.80;7.50
56137;DHT22;42008;52.934;5.884;2022-08-16T06:10:27;19.80;4.70
56137;DHT22;42008;52.934;5.884;2022-08-16T06:12:53;20.70;2.40
56137;DHT22;42008;52.934;5.884;2022-08-16T06:15:19;20.70;2.60
56137;DHT22;42008;52.934;5.884;2022-08-16T06:17:45;20.00;1.00
56137;DHT22;42008;52.934;5.884;2022-08-16T06:20:14;20.70;1.00
56137;DHT22;42008;52.934;5.884;2022-08-16T06:22:40;21.40;1.00
56137;DHT22;42008;52.934;5.884;2022-08-16T06:25:07;20.60;1.00
56137;DHT22;42008;52.934;5.884;2022-08-16T06:27:33;20.30;1.00
56137;DHT22;42008;52.934;5.884;2022-08-16T06:29:59;22.00;1.00
56137;DHT22;42008;52.934;5.884;2022-08-16T06:32:24;20.90;1.00
56137;DHT22;42008;52.934;5.884;2022-08-16T06:34:50;22.20;1.00
56137;DHT22;42008;52.934;5.884;2022-08-16T06:37:15;22.30;1.00
56137;DHT22;42008;52.934;5.884;2022-08-16T06:39:41;22.30;1.00
56137;DHT22;42008;52.934;5.884;2022-08-16T06:42:06;21.40;1.00
56137;DHT22;42008;52.934;5.884;2022-08-16T06:44:32;22.20;1.00
56137;DHT22;42008;52.934;5.884;2022-08-16T06:46:58;22.30;1.00
56137;DHT22;42008;52.934;5.884;2022-08-16T06:49:23;21.50;1.00
56137;DHT22;42008;52.934;5.884;2022-08-16T06:51:49;20.60;1.00
56137;DHT22;42008;52.934;5.884;2022-08-16T06:54:15;22.80;1.00
56137;DHT22;42008;52.934;5.884;2022-08-16T06:56:41;22.20;1.00
56137;DHT22;42008;52.934;5.884;2022-08-16T06:59:07;22.40;1.00
56137;DHT22;42008;52.934;5.884;2022-08-16T07:01:33;20.90;1.00
56137;DHT22;42008;52.934;5.884;2022-08-16T07:03:58;23.20;1.00
56137;DHT22;42008;52.934;5.884;2022-08-16T07:06:25;23.20;1.00
56137;DHT22;42008;52.934;5.884;2022-08-16T07:08:51;23.60;1.00
56137;DHT22;42008;52.934;5.884;2022-08-16T07:11:17;23.60;1.00
56137;DHT22;42008;52.934;5.884;2022-08-16T07:13:45;23.20;1.00
56137;DHT22;42008;52.934;5.884;2022-08-16T07:16:12;23.00;1.00
56137;DHT22;42008;52.934;5.884;2022-08-16T07:18:45;21.60;1.00
56137;DHT22;42008;52.934;5.884;2022-08-16T07:21:11;22.30;1.00
56137;DHT22;42008;52.934;5.884;2022-08-16T07:23:39;21.70;1.00
56137;DHT22;42008;52.934;5.884;2022-08-16T07:26:07;23.40;1.00
56137;DHT22;42008;52.934;5.884;2022-08-16T07:28:34;24.30;1.00
56137;DHT22;42008;52.934;5.884;2022-08-16T07:31:00;23.10;1.00
56137;DHT22;42008;52.934;5.884;2022-08-16T07:33:28;22.80;1.00
56137;DHT22;42008;52.934;5.884;2022-08-16T07:35:55;23.10;1.00
56137;DHT22;42008;52.934;5.884;2022-08-16T07:38:21;24.10;1.00
56137;DHT22;42008;52.934;5.884;2022-08-16T07:40:50;23.60;1.00
56137;DHT22;42008;52.934;5.884;2022-08-16T07:43:16;23.00;1.00
56137;DHT22;42008;52.934;5.884;2022-08-16T07:45:44;24.10;1.00
56137;DHT22;42008;52.934;5.884;2022-08-16T07:48:10;23.00;1.00
56137;DHT22;42008;52.934;5.884;2022-08-16T07:50:36;23.20;1.00
56137;DHT22;42008;52.934;5.884;2022-08-16T07:53:01;23.50;1.00
56137;DHT22;42008;52.934;5.884;2022-08-16T07:55:27;24.10;1.00
56137;DHT22;42008;52.934;5.884;2022-08-16T07:57:52;23.00;1.00
56137;DHT22;42008;52.934;5.884;2022-08-16T08:00:18;23.90;1.00
56137;DHT22;42008;52.934;5.884;2022-08-16T08:02:45;23.10;1.00
56137;DHT22;42008;52.934;5.884;2022-08-16T08:05:11;24.20;1.00
56137;DHT22;42008;52.934;5.884;2022-08-16T08:07:37;24.40;1.00
56137;DHT22;42008;52.934;5.884;2022-08-16T08:10:04;24.10;1.00
56137;DHT22;42008;52.934;5.884;2022-08-16T08:12:30;23.10;1.00
56137;DHT22;42008;52.934;5.884;2022-08-16T08:14:55;23.70;1.00
56137;DHT22;42008;52.934;5.884;2022-08-16T08:17:21;24.60;1.00
56137;DHT22;42008;52.934;5.884;2022-08-16T08:19:47;26.50;1.00
56137;DHT22;42008;52.934;5.884;2022-08-16T08:22:13;23.40;1.00
56137;DHT22;42008;52.934;5.884;2022-08-16T08:24:38;24.20;1.00
56137;DHT22;42008;52.934;5.884;2022-08-16T08:27:06;23.50;1.00
56137;DHT22;42008;52.934;5.884;2022-08-16T08:29:34;23.50;1.00
56137;DHT22;42008;52.934;5.884;2022-08-16T08:32:00;22.80;1.00
56137;DHT22;42008;52.934;5.884;2022-08-16T08:34:26;24.10;1.00
56137;DHT22;42008;52.934;5.884;2022-08-16T08:36:52;23.40;1.00
56137;DHT22;42008;52.934;5.884;2022-08-16T08:39:17;24.40;1.00
56137;DHT22;42008;52.934;5.884;2022-08-16T08:41:43;24.10;1.00
56137;DHT22;42008;52.934;5.884;2022-08-16T08:44:10;24.30;1.00
56137;DHT22;42008;52.934;5.884;2022-08-16T08:46:36;23.70;1.00
56137;DHT22;42008;52.934;5.884;2022-08-16T08:49:03;24.50;1.00
56137;DHT22;42008;52.934;5.884;2022-08-16T08:51:32;24.40;1.00
56137;DHT22;42008;52.934;5.884;2022-08-16T08:53:58;24.20;1.00
56137;DHT22;42008;52.934;5.884;2022-08-16T08:56:24;25.30;1.00
56137;DHT22;42008;52.934;5.884;2022-08-16T08:58:49;23.90;1.00
56137;DHT22;42008;52.934;5.884;2022-08-16T09:01:20;24.00;1.00
56137;DHT22;42008;52.934;5.884;2022-08-16T09:03:47;24.30;1.00
56137;DHT22;42008;52.934;5.884;2022-08-16T09:06:12;23.90;1.00
56137;DHT22;42008;52.934;5.884;2022-08-16T09:08:38;25.50;1.00
56137;DHT22;42008;52.934;5.884;2022-08-16T09:11:04;25.80;1.00
56137;DHT22;42008;52.934;5.884;2022-08-16T09:13:30;23.90;1.00
56137;DHT22;42008;52.934;5.884;2022-08-16T09:15:57;25.30;1.00
56137;DHT22;42008;52.934;5.884;2022-08-16T09:18:23;27.20;1.00
56137;DHT22;42008;52.934;5.884;2022-08-16T09:20:50;25.50;1.00
56137;DHT22;42008;52.934;5.884;2022-08-16T09:23:20;24.50;1.00
56137;DHT22;42008;52.934;5.884;2022-08-16T09:25:46;24.50;1.00
56137;DHT22;42008;52.934;5.884;2022-08-16T09:28:12;26.10;1.00
56137;DHT22;42008;52.934;5.884;2022-08-16T09:30:40;24.30;1.00
56137;DHT22;42008;52.934;5.884;2022-08-16T09:33:06;24.50;1.00
56137;DHT22;42008;52.934;5.884;2022-08-16T09:35:32;27.10;1.00
56137;DHT22;42008;52.934;5.884;2022-08-16T09:37:58;26.10;1.00
56137;DHT22;42008;52.934;5.884;2022-08-16T09:40:23;24.80;1.00
56137;DHT22;42008;52.934;5.884;2022-08-16T09:42:49;26.90;1.00
56137;DHT22;42008;52.934;5.884;2022-08-16T09:45:18;25.20;1.00
56137;DHT22;42008;52.934;5.884;2022-08-16T09:47:45;24.50;1.00
56137;DHT22;42008;52.934;5.884;2022-08-16T09:50:13;25.20;1.00
56137;DHT22;42008;52.934;5.884;2022-08-16T09:52:39;26.40;1.00
56137;DHT22;42008;52.934;5.884;2022-08-16T09:55:07;25.20;1.00
56137;DHT22;42008;52.934;5.884;2022-08-16T09:57:35;24.80;1.00
56137;DHT22;42008;52.934;5.884;2022-08-16T10:00:03;25.00;1.00
56137;DHT22;42008;52.934;5.884;2022-08-16T10:02:29;26.30;1.00
56137;DHT22;42008;52.934;5.884;2022-08-16T10:04:56;27.10;1.00
56137;DHT22;42008;52.934;5.884;2022-08-16T10:07:24;27.00;1.00
56137;DHT22;42008;52.934;5.884;2022-08-16T10:09:50;25.00;1.00
56137;DHT22;42008;52.934;5.884;2022-08-16T10:12:16;27.60;1.00
56137;DHT22;42008;52.934;5.884;2022-08-16T10:15:00;26.60;1.00
56137;DHT22;42008;52.934;5.884;2022-08-16T10:17:26;26.60;1.00
56137;DHT22;42008;52.934;5.884;2022-08-16T10:19:52;26.20;1.00
56137;DHT22;42008;52.934;5.884;2022-08-16T10:22:20;25.10;1.00
56137;DHT22;42008;52.934;5.884;2022-08-16T10:24:46;26.60;1.00
56137;DHT22;42008;52.934;5.884;2022-08-16T10:27:12;25.00;1.00
56137;DHT22;42008;52.934;5.884;2022-08-16T10:29:37;25.60;1.00
56137;DHT22;42008;52.934;5.884;2022-08-16T10:32:03;28.00;1.00
56137;DHT22;42008;52.934;5.884;2022-08-16T10:34:29;26.60;1.00
56137;DHT22;42008;52.934;5.884;2022-08-16T10:36:55;26.90;1.00
56137;DHT22;42008;52.934;5.884;2022-08-16T10:39:21;26.80;1.00
56137;DHT22;42008;52.934;5.884;2022-08-16T10:41:47;26.80;1.00
56137;DHT22;42008;52.934;5.884;2022-08-16T10:44:12;25.10;1.00
56137;DHT22;42008;52.934;5.884;2022-08-16T10:46:39;25.30;1.00
56137;DHT22;42008;52.934;5.884;2022-08-16T10:49:05;26.00;1.00
56137;DHT22;42008;52.934;5.884;2022-08-16T10:51:31;26.30;1.00
56137;DHT22;42008;52.934;5.884;2022-08-16T10:53:57;26.60;1.00
56137;DHT22;42008;52.934;5.884;2022-08-16T10:56:22;26.70;1.00
56137;DHT22;42008;52.934;5.884;2022-08-16T10:58:50;27.40;1.00
56137;DHT22;42008;52.934;5.884;2022-08-16T11:01:16;27.00;1.00
56137;DHT22;42008;52.934;5.884;2022-08-16T11:03:41;26.90;1.00
56137;DHT22;42008;52.934;5.884;2022-08-16T11:06:08;26.80;1.00
56137;DHT22;42008;52.934;5.884;2022-08-16T11:08:35;27.00;1.00
56137;DHT22;42008;52.934;5.884;2022-08-16T11:11:02;27.40;1.00
56137;DHT22;42008;52.934;5.884;2022-08-16T11:13:28;27.30;1.00
56137;DHT22;42008;52.934;5.884;2022-08-16T11:15:55;27.50;1.00
56137;DHT22;42008;52.934;5.884;2022-08-16T11:18:22;27.10;1.00
56137;DHT22;42008;52.934;5.884;2022-08-16T11:20:47;27.50;1.00
56137;DHT22;42008;52.934;5.884;2022-08-16T11:23:13;27.10;1.00
56137;DHT22;42008;52.934;5.884;2022-08-16T11:25:40;27.40;1.00
56137;DHT22;42008;52.934;5.884;2022-08-16T11:28:09;27.20;1.00
56137;DHT22;42008;52.934;5.884;2022-08-16T11:30:36;27.00;1.00
56137;DHT22;42008;52.934;5.884;2022-08-16T11:33:02;26.90;1.00
56137;DHT22;42008;52.934;5.884;2022-08-16T11:35:31;27.10;1.00
56137;DHT22;42008;52.934;5.884;2022-08-16T11:38:09;26.70;1.00
56137;DHT22;42008;52.934;5.884;2022-08-16T11:40:41;27.10;1.00
56137;DHT22;42008;52.934;5.884;2022-08-16T11:43:12;26.70;1.00
56137;DHT22;42008;52.934;5.884;2022-08-16T11:45:38;27.30;1.00
56137;DHT22;42008;52.934;5.884;2022-08-16T11:48:04;27.00;1.00
56137;DHT22;42008;52.934;5.884;2022-08-16T11:50:31;27.00;1.00
56137;DHT22;42008;52.934;5.884;2022-08-16T11:53:00;27.30;1.00
56137;DHT22;42008;52.934;5.884;2022-08-16T11:55:26;27.50;1.00
56137;DHT22;42008;52.934;5.884;2022-08-16T11:57:52;27.40;1.00
56137;DHT22;42008;52.934;5.884;2022-08-16T12:00:17;27.80;1.00
56137;DHT22;42008;52.934;5.884;2022-08-16T12:02:43;27.30;1.00
56137;DHT22;42008;52.934;5.884;2022-08-16T12:05:12;27.50;1.00
56137;DHT22;42008;52.934;5.884;2022-08-16T12:07:39;28.00;1.00
56137;DHT22;42008;52.934;5.884;2022-08-16T12:10:10;27.80;1.00
56137;DHT22;42008;52.934;5.884;2022-08-16T12:12:36;27.90;1.00
56137;DHT22;42008;52.934;5.884;2022-08-16T12:15:02;28.20;1.00
56137;DHT22;42008;52.934;5.884;2022-08-16T12:17:29;28.00;1.00
56137;DHT22;42008;52.934;5.884;2022-08-16T12:19:55;27.80;1.00
56137;DHT22;42008;52.934;5.884;2022-08-16T12:22:22;28.00;1.00
56137;DHT22;42008;52.934;5.884;2022-08-16T12:24:49;28.50;1.00
56137;DHT22;42008;52.934;5.884;2022-08-16T12:27:15;28.10;1.00
56137;DHT22;42008;52.934;5.884;2022-08-16T12:29:40;28.20;99.90
56137;DHT22;42008;52.934;5.884;2022-08-16T12:32:06;27.90;1.00
56137;DHT22;42008;52.934;5.884;2022-08-16T12:34:32;28.20;1.00
56137;DHT22;42008;52.934;5.884;2022-08-16T12:36:59;29.10;1.00
56137;DHT22;42008;52.934;5.884;2022-08-16T12:39:28;28.50;1.00
56137;DHT22;42008;52.934;5.884;2022-08-16T12:41:53;27.80;1.00
56137;DHT22;42008;52.934;5.884;2022-08-16T12:44:20;28.10;1.00
56137;DHT22;42008;52.934;5.884;2022-08-16T12:46:46;27.60;1.00
56137;DHT22;42008;52.934;5.884;2022-08-16T12:49:31;27.10;1.00
56137;DHT22;42008;52.934;5.884;2022-08-16T12:51:57;27.70;1.00
56137;DHT22;42008;52.934;5.884;2022-08-16T12:54:23;27.80;1.00
56137;DHT22;42008;52.934;5.884;2022-08-16T12:56:49;26.80;1.00
56137;DHT22;42008;52.934;5.884;2022-08-16T12:59:15;27.50;1.00
56137;DHT22;42008;52.934;5.884;2022-08-16T13:01:40;27.50;1.00
56137;DHT22;42008;52.934;5.884;2022-08-16T13:04:07;27.70;1.00
56137;DHT22;42008;52.934;5.884;2022-08-16T13:06:34;30.00;1.00
56137;DHT22;42008;52.934;5.884;2022-08-16T13:09:03;29.40;1.00
56137;DHT22;42008;52.934;5.884;2022-08-16T13:11:43;27.50;1.00
56137;DHT22;42008;52.934;5.884;2022-08-16T13:14:13;28.20;1.00
56137;DHT22;42008;52.934;5.884;2022-08-16T13:16:40;28.30;1.00
56137;DHT22;42008;52.934;5.884;2022-08-16T13:19:06;28.00;1.00
56137;DHT22;42008;52.934;5.884;2022-08-16T13:21:32;28.40;1.00
56137;DHT22;42008;52.934;5.884;2022-08-16T13:23:58;28.30;1.00
56137;DHT22;42008;52.934;5.884;2022-08-16T13:26:24;28.80;1.00
56137;DHT22;42008;52.934;5.884;2022-08-16T13:28:50;28.40;1.00
56137;DHT22;42008;52.934;5.884;2022-08-16T13:31:17;28.30;1.00
56137;DHT22;42008;52.934;5.884;2022-08-16T13:33:43;29.10;1.00
56137;DHT22;42008;52.934;5.884;2022-08-16T13:36:10;28.90;99.90
56137;DHT22;42008;52.934;5.884;2022-08-16T13:38:37;30.40;99.90
56137;DHT22;42008;52.934;5.884;2022-08-16T13:41:06;28.80;99.90
56137;DHT22;42008;52.934;5.884;2022-08-16T13:43:32;28.60;99.90
56137;DHT22;42008;52.934;5.884;2022-08-16T13:45:59;29.30;99.90
56137;DHT22;42008;52.934;5.884;2022-08-16T13:48:27;31.00;99.90
56137;DHT22;42008;52.934;5.884;2022-08-16T13:50:54;29.50;99.90
56137;DHT22;42008;52.934;5.884;2022-08-16T13:53:20;31.10;99.90
56137;DHT22;42008;52.934;5.884;2022-08-16T13:55:47;30.10;99.90
56137;DHT22;42008;52.934;5.884;2022-08-16T13:58:12;31.20;99.90
56137;DHT22;42008;52.934;5.884;2022-08-16T14:00:38;31.20;99.90
56137;DHT22;42008;52.934;5.884;2022-08-16T14:03:06;29.60;99.90
56137;DHT22;42008;52.934;5.884;2022-08-16T14:05:32;29.50;99.90
56137;DHT22;42008;52.934;5.884;2022-08-16T14:07:57;30.90;99.90
56137;DHT22;42008;52.934;5.884;2022-08-16T14:10:23;30.10;1.00
56137;DHT22;42008;52.934;5.884;2022-08-16T14:12:49;28.00;99.90
56137;DHT22;42008;52.934;5.884;2022-08-16T14:15:16;27.80;1.00
56137;DHT22;42008;52.934;5.884;2022-08-16T14:17:43;27.40;1.00
56137;DHT22;42008;52.934;5.884;2022-08-16T14:20:09;27.10;1.00
56137;DHT22;42008;52.934;5.884;2022-08-16T14:22:37;27.30;1.00
56137;DHT22;42008;52.934;5.884;2022-08-16T14:25:06;27.50;1.00
56137;DHT22;42008;52.934;5.884;2022-08-16T14:27:34;27.30;1.00
56137;DHT22;42008;52.934;5.884;2022-08-16T14:30:00;27.80;1.00
56137;DHT22;42008;52.934;5.884;2022-08-16T14:32:34;27.40;1.00
56137;DHT22;42008;52.934;5.884;2022-08-16T14:35:03;27.70;1.00
56137;DHT22;42008;52.934;5.884;2022-08-16T14:37:30;27.40;1.00
56137;DHT22;42008;52.934;5.884;2022-08-16T14:39:56;27.40;1.00
56137;DHT22;42008;52.934;5.884;2022-08-16T14:42:24;27.20;1.00
56137;DHT22;42008;52.934;5.884;2022-08-16T14:44:49;28.60;1.00
56137;DHT22;42008;52.934;5.884;2022-08-16T14:47:16;29.30;1.00
56137;DHT22;42008;52.934;5.884;2022-08-16T14:49:41;28.00;1.00
56137;DHT22;42008;52.934;5.884;2022-08-16T14:52:10;28.10;99.90
56137;DHT22;42008;52.934;5.884;2022-08-16T14:54:37;27.90;99.90
56137;DHT22;42008;52.934;5.884;2022-08-16T14:57:06;27.80;99.90
56137;DHT22;42008;52.934;5.884;2022-08-16T14:59:32;27.70;99.90
56137;DHT22;42008;52.934;5.884;2022-08-16T15:01:59;27.80;99.90
56137;DHT22;42008;52.934;5.884;2022-08-16T15:04:25;27.00;1.00
56137;DHT22;42008;52.934;5.884;2022-08-16T15:06:51;28.30;1.00
56137;DHT22;42008;52.934;5.884;2022-08-16T15:09:18;28.50;99.90
56137;DHT22;42008;52.934;5.884;2022-08-16T15:11:43;28.40;99.90
56137;DHT22;42008;52.934;5.884;2022-08-16T15:14:09;28.20;99.90
56137;DHT22;42008;52.934;5.884;2022-08-16T15:16:35;27.90;99.90
56137;DHT22;42008;52.934;5.884;2022-08-16T15:19:00;28.80;99.90
56137;DHT22;42008;52.934;5.884;2022-08-16T15:21:27;27.80;99.90
56137;DHT22;42008;52.934;5.884;2022-08-16T15:23:53;27.80;99.90
56137;DHT22;42008;52.934;5.884;2022-08-16T15:26:20;27.00;1.00
56137;DHT22;42008;52.934;5.884;2022-08-16T15:28:45;27.30;1.00
56137;DHT22;42008;52.934;5.884;2022-08-16T15:31:12;25.30;1.00
56137;DHT22;42008;52.934;5.884;2022-08-16T15:33:41;26.70;1.00
56137;DHT22;42008;52.934;5.884;2022-08-16T15:36:07;26.60;1.00
56137;DHT22;42008;52.934;5.884;2022-08-16T15:38:34;26.20;1.00
56137;DHT22;42008;52.934;5.884;2022-08-16T15:41:00;26.60;1.00